createdAt,value
2022-08-10T00:01:39.867Z,87.70
2022-08-10T00:04:07.956Z,87.60
2022-08-10T00:06:37.095Z,88.00
2022-08-10T00:09:06.492Z,86.90
2022-08-10T00:11:34.501Z,87.20
2022-08-10T00:14:02.578Z,87.50
2022-08-10T00:16:30.658Z,87.60
2022-08-10T00:18:58.635Z,88.10
2022-08-10T00:21:27.187Z,88.30
2022-08-10T00:23:55.466Z,88.00
2022-08-10T00:26:24.951Z,87.90
2022-08-10T00:28:54.140Z,88.50
2022-08-10T00:31:22.101Z,88.70
2022-08-10T00:33:50.061Z,88.60
2022-08-10T00:36:18.091Z,88.70
2022-08-10T00:38:46.058Z,89.10
2022-08-10T00:41:14.185Z,89.20
2022-08-10T00:43:43.530Z,89.40
2022-08-10T00:46:11.518Z,89.60
2022-08-10T00:48:39.543Z,89.70
2022-08-10T00:51:07.768Z,90.00
2022-08-10T00:53:35.754Z,90.10
2022-08-10T00:57:12.868Z,89.90
2022-08-10T00:58:53.477Z,90.10
2022-08-10T01:02:08.279Z,90.20
2022-08-10T01:04:54.658Z,90.10
2022-08-10T01:07:15.626Z,90.20
2022-08-10T01:09:57.231Z,90.40
2022-08-10T01:12:40.452Z,90.70
2022-08-10T01:15:19.083Z,90.70
2022-08-10T01:17:54.593Z,90.80
2022-08-10T01:20:31.189Z,90.80
2022-08-10T01:23:35.723Z,90.90
2022-08-10T01:26:30.977Z,90.90
2022-08-10T01:29:17.867Z,90.70
2022-08-10T01:31:52.023Z,91.20
2022-08-10T01:34:25.135Z,91.20
2022-08-10T01:36:56.664Z,91.30
2022-08-10T01:39:38.992Z,91.70
2022-08-10T01:42:11.874Z,92.00
2022-08-10T01:44:45.449Z,92.00
2022-08-10T01:47:36.984Z,92.30
2022-08-10T01:50:08.987Z,92.30
2022-08-10T01:52:43.038Z,92.40
2022-08-10T01:55:14.435Z,92.60
2022-08-10T01:57:44.373Z,92.40
2022-08-10T02:00:14.095Z,92.30
2022-08-10T02:02:46.147Z,92.40
2022-08-10T02:05:16.920Z,92.60
2022-08-10T02:07:47.880Z,92.80
2022-08-10T02:10:19.647Z,92.90
2022-08-10T02:12:49.573Z,92.90
2022-08-10T02:15:21.023Z,92.90
2022-08-10T02:17:59.718Z,92.80
2022-08-10T02:20:33.474Z,92.90
2022-08-10T02:23:06.287Z,93.00
2022-08-10T02:25:41.123Z,93.20
2022-08-10T02:28:30.597Z,93.50
2022-08-10T02:31:02.963Z,93.60
2022-08-10T02:33:38.086Z,93.90
2022-08-10T02:36:08.691Z,94.00
2022-08-10T02:38:59.300Z,94.00
2022-08-10T02:45:14.469Z,93.80
2022-08-10T02:45:29.084Z,94.00
2022-08-10T02:47:29.541Z,94.30
2022-08-10T02:50:24.427Z,94.40
2022-08-10T02:52:58.595Z,94.50
2022-08-10T02:55:32.974Z,94.60
2022-08-10T02:58:12.521Z,95.10
2022-08-10T03:00:49.291Z,95.00
2022-08-10T03:03:20.933Z,95.00
2022-08-10T03:05:54.932Z,95.20
2022-08-10T03:08:29.482Z,95.10
2022-08-10T03:11:00.576Z,95.20
2022-08-10T03:13:30.424Z,95.20
2022-08-10T03:16:01.444Z,95.30
2022-08-10T03:18:32.954Z,95.10
2022-08-10T03:21:03.270Z,95.30
2022-08-10T03:23:31.754Z,95.80
2022-08-10T03:26:01.057Z,96.00
2022-08-10T03:28:32.779Z,96.20
2022-08-10T03:31:02.489Z,96.10
2022-08-10T03:33:33.275Z,95.80
2022-08-10T03:36:41.826Z,95.70
2022-08-10T03:38:52.506Z,96.00
2022-08-10T03:41:24.687Z,96.30
2022-08-10T03:43:54.469Z,96.50
2022-08-10T03:46:25.811Z,96.30
2022-08-10T03:48:57.511Z,96.30
2022-08-10T03:51:29.827Z,96.30
2022-08-10T03:54:04.470Z,96.30
2022-08-10T03:56:38.043Z,96.20
2022-08-10T03:59:07.147Z,96.40
2022-08-10T04:02:45.386Z,96.50
2022-08-10T04:04:25.274Z,96.70
2022-08-10T04:06:56.695Z,96.90
2022-08-10T04:09:54.353Z,96.60
2022-08-10T04:12:18.065Z,96.90
2022-08-10T04:14:51.573Z,97.10
2022-08-10T04:18:04.514Z,97.40
2022-08-10T04:20:14.687Z,97.50
2022-08-10T04:22:45.844Z,97.60
2022-08-10T04:25:16.258Z,97.50
2022-08-10T04:27:44.959Z,97.50
2022-08-10T04:30:13.704Z,97.50
2022-08-10T04:32:42.609Z,97.50
2022-08-10T04:35:11.843Z,97.70
2022-08-10T04:37:47.177Z,97.80
2022-08-10T04:40:24.882Z,97.80
2022-08-10T04:43:04.506Z,97.90
2022-08-10T04:45:47.640Z,97.90
2022-08-10T04:48:42.272Z,97.90
2022-08-10T04:51:11.233Z,97.90
2022-08-10T04:54:02.845Z,97.90
2022-08-10T04:56:36.923Z,97.90
2022-08-10T04:59:06.238Z,98.00
2022-08-10T05:02:22.357Z,98.10
2022-08-10T05:04:34.659Z,98.20
2022-08-10T05:07:10.488Z,98.10
2022-08-10T05:10:02.949Z,98.30
2022-08-10T05:12:29.394Z,98.00
2022-08-10T05:14:57.631Z,97.90
2022-08-10T05:17:25.645Z,97.60
2022-08-10T05:20:01.836Z,97.20
2022-08-10T05:22:33.499Z,96.70
2022-08-10T05:25:01.568Z,96.20
2022-08-10T05:27:30.922Z,95.80
2022-08-10T05:30:01.214Z,95.50
2022-08-10T05:32:29.889Z,95.10
2022-08-10T05:34:57.873Z,94.50
2022-08-10T05:38:10.038Z,93.80
2022-08-10T05:40:14.851Z,93.70
2022-08-10T05:42:44.137Z,93.30
2022-08-10T05:45:20.282Z,93.00
2022-08-10T05:48:54.048Z,92.60
2022-08-10T05:50:36.744Z,92.20
2022-08-10T05:53:59.233Z,91.80
2022-08-10T05:55:53.089Z,91.30
2022-08-10T05:58:23.542Z,91.50
2022-08-10T06:00:55.276Z,91.40
2022-08-10T06:03:27.925Z,91.30
2022-08-10T06:05:57.851Z,90.80
2022-08-10T06:08:31.941Z,90.60
2022-08-10T06:12:25.620Z,90.40
2022-08-10T06:14:28.327Z,90.20
2022-08-10T06:16:58.599Z,90.70
2022-08-10T06:19:27.119Z,90.80
2022-08-10T06:22:01.211Z,91.10
2022-08-10T06:24:31.250Z,90.60
2022-08-10T06:26:59.541Z,90.30
2022-08-10T06:29:33.112Z,90.00
2022-08-10T06:32:02.336Z,89.40
2022-08-10T06:34:33.371Z,90.00
2022-08-10T06:37:04.459Z,89.20
2022-08-10T06:39:34.475Z,88.50
2022-08-10T06:42:16.841Z,88.00
2022-08-10T06:44:57.753Z,87.80
2022-08-10T06:47:32.179Z,87.00
2022-08-10T06:50:08.654Z,86.00
2022-08-10T06:52:39.173Z,83.60
2022-08-10T06:55:10.556Z,83.70
2022-08-10T06:57:40.215Z,82.50
2022-08-10T07:00:11.428Z,82.30
2022-08-10T07:02:45.832Z,82.90
2022-08-10T07:05:20.043Z,82.20
2022-08-10T07:07:50.963Z,82.10
2022-08-10T07:10:21.049Z,82.00
2022-08-10T07:12:51.293Z,81.50
2022-08-10T07:15:21.948Z,79.40
2022-08-10T07:17:52.158Z,80.30
2022-08-10T07:20:22.102Z,79.20
2022-08-10T07:23:54.743Z,79.40
2022-08-10T07:25:44.274Z,79.80
2022-08-10T07:28:12.842Z,80.10
2022-08-10T07:30:43.257Z,79.90
2022-08-10T07:33:17.741Z,77.70
2022-08-10T07:35:46.787Z,78.70
2022-08-10T07:38:19.219Z,78.30
2022-08-10T07:40:48.445Z,77.20
2022-08-10T07:43:18.435Z,77.40
2022-08-10T07:45:48.771Z,75.60
2022-08-10T07:48:20.717Z,73.50
2022-08-10T07:50:50.236Z,74.10
2022-08-10T07:53:22.653Z,73.60
2022-08-10T07:56:05.944Z,75.50
2022-08-10T07:58:46.408Z,75.90
2022-08-10T08:01:25.073Z,73.60
2022-08-10T08:04:11.424Z,73.80
2022-08-10T08:06:41.154Z,73.60
2022-08-10T08:09:10.108Z,72.20
2022-08-10T08:11:39.682Z,72.00
2022-08-10T08:14:09.028Z,70.60
2022-08-10T08:16:41.208Z,70.00
2022-08-10T08:19:27.744Z,69.60
2022-08-10T08:24:09.033Z,70.40
2022-08-10T08:24:45.954Z,70.70
2022-08-10T08:27:16.695Z,70.50
2022-08-10T08:29:47.411Z,70.30
2022-08-10T08:32:19.435Z,69.50
2022-08-10T08:34:50.211Z,70.00
2022-08-10T08:38:33.737Z,70.60
2022-08-10T08:40:14.668Z,69.60
2022-08-10T08:43:18.852Z,69.90
2022-08-10T08:46:10.514Z,70.60
2022-08-10T08:49:09.501Z,69.80
2022-08-10T08:52:09.357Z,69.60
2022-08-10T08:54:47.637Z,65.10
2022-08-10T08:57:49.772Z,65.80
2022-08-10T09:00:20.301Z,65.10
2022-08-10T09:03:23.969Z,62.00
2022-08-10T09:06:17.009Z,63.00
2022-08-10T09:09:04.646Z,63.50
2022-08-10T09:11:46.637Z,60.10
2022-08-10T09:14:26.678Z,62.40
2022-08-10T09:17:04.625Z,62.00
2022-08-10T09:19:39.292Z,60.30
2022-08-10T09:22:19.298Z,61.50
2022-08-10T09:24:53.157Z,60.40
2022-08-10T09:27:23.872Z,60.00
2022-08-10T09:29:56.216Z,58.90
2022-08-10T09:36:17.347Z,58.90
2022-08-10T09:36:24.971Z,62.20
2022-08-10T09:38:37.306Z,60.40
2022-08-10T09:41:17.201Z,59.80
2022-08-10T09:43:56.822Z,56.10
2022-08-10T09:46:41.019Z,57.30
2022-08-10T09:49:22.496Z,57.30
2022-08-10T09:52:06.546Z,59.20
2022-08-10T09:54:49.831Z,60.20
2022-08-10T09:57:43.515Z,59.20
2022-08-10T10:00:15.833Z,58.20
2022-08-10T10:02:58.845Z,58.40
2022-08-10T10:05:35.334Z,57.40
2022-08-10T10:08:10.542Z,57.20
2022-08-10T10:10:48.025Z,56.90
2022-08-10T10:13:41.638Z,57.30
2022-08-10T10:16:34.011Z,56.50
2022-08-10T10:19:11.573Z,56.20
2022-08-10T10:21:56.254Z,58.60
2022-08-10T10:24:34.176Z,58.00
2022-08-10T10:27:16.038Z,57.20
2022-08-10T10:29:58.440Z,56.80
2022-08-10T10:32:36.721Z,57.70
2022-08-10T10:35:16.184Z,55.70
2022-08-10T10:38:10.597Z,55.00
2022-08-10T10:40:43.175Z,57.70
2022-08-10T10:43:26.190Z,57.10
2022-08-10T10:46:05.863Z,55.40
2022-08-10T10:48:46.545Z,56.70
2022-08-10T10:51:22.548Z,55.40
2022-08-10T10:54:00.762Z,56.00
2022-08-10T10:56:36.611Z,53.80
2022-08-10T10:59:54.442Z,55.00
2022-08-10T11:02:18.485Z,53.10
2022-08-10T11:04:57.201Z,53.50
2022-08-10T11:07:33.937Z,53.90
2022-08-10T11:10:31.883Z,54.00
2022-08-10T11:14:25.529Z,53.30
2022-08-10T11:16:05.402Z,55.00
2022-08-10T11:18:45.535Z,57.20
2022-08-10T11:21:21.763Z,53.50
2022-08-10T11:24:47.007Z,52.90
2022-08-10T11:26:49.849Z,53.90
2022-08-10T11:29:25.433Z,54.40
2022-08-10T11:32:01.286Z,54.60
2022-08-10T11:34:48.607Z,54.20
2022-08-10T11:38:32.899Z,53.90
2022-08-10T11:40:45.670Z,54.30
2022-08-10T11:43:21.879Z,53.80
2022-08-10T11:45:55.367Z,52.20
2022-08-10T11:48:54.477Z,52.70
2022-08-10T11:51:27.730Z,53.00
2022-08-10T11:54:04.706Z,54.10
2022-08-10T11:56:40.489Z,52.80
2022-08-10T11:59:26.649Z,53.60
2022-08-10T12:01:56.163Z,52.50
2022-08-10T12:04:30.472Z,51.30
2022-08-10T12:07:00.087Z,52.40
2022-08-10T12:10:10.126Z,50.70
2022-08-10T12:12:18.788Z,53.20
2022-08-10T12:14:56.246Z,52.20
2022-08-10T12:17:28.628Z,52.00
2022-08-10T12:20:07.950Z,52.20
2022-08-10T12:22:44.286Z,52.90
2022-08-10T12:25:54.933Z,53.00
2022-08-10T12:28:11.930Z,52.50
2022-08-10T12:30:49.208Z,51.20
2022-08-10T12:33:24.079Z,51.80
2022-08-10T12:36:18.016Z,51.30
2022-08-10T12:38:58.213Z,52.00
2022-08-10T12:41:45.096Z,50.50
2022-08-10T12:44:19.218Z,50.70
2022-08-10T12:46:55.972Z,50.70
2022-08-10T12:49:31.362Z,51.40
2022-08-10T12:52:07.137Z,52.20
2022-08-10T12:54:39.082Z,51.30
2022-08-10T12:57:12.126Z,51.60
2022-08-10T12:59:46.079Z,53.10
2022-08-10T13:02:21.006Z,51.30
2022-08-10T13:04:51.854Z,51.30
2022-08-10T13:08:24.579Z,50.50
2022-08-10T13:10:17.001Z,50.80
2022-08-10T13:12:47.765Z,50.90
2022-08-10T13:15:25.429Z,51.10
2022-08-10T13:18:18.057Z,50.90
2022-08-10T13:20:52.384Z,52.50
2022-08-10T13:23:24.784Z,52.40
2022-08-10T13:25:56.024Z,53.00
2022-08-10T13:28:36.563Z,52.00
2022-08-10T13:31:16.878Z,51.90
2022-08-10T13:34:39.244Z,51.70
2022-08-10T13:36:39.045Z,51.70
2022-08-10T13:39:10.557Z,51.00
2022-08-10T13:41:41.715Z,52.70
2022-08-10T13:44:13.262Z,52.20
2022-08-10T13:46:42.399Z,52.50
2022-08-10T13:49:12.536Z,52.40
2022-08-10T13:51:53.811Z,51.70
2022-08-10T13:54:36.492Z,52.40
2022-08-10T13:57:05.877Z,51.30
2022-08-10T14:00:34.029Z,51.60
2022-08-10T14:02:26.985Z,51.10
2022-08-10T14:04:58.685Z,50.50
2022-08-10T14:07:29.002Z,52.00
2022-08-10T14:10:07.018Z,52.40
2022-08-10T14:12:37.427Z,52.80
2022-08-10T14:15:08.155Z,52.20
2022-08-10T14:17:41.414Z,52.10
2022-08-10T14:20:19.274Z,52.60
2022-08-10T14:22:49.617Z,52.40
2022-08-10T14:25:19.015Z,53.40
2022-08-10T14:28:02.836Z,52.50
2022-08-10T14:30:34.446Z,52.60
2022-08-10T14:33:05.141Z,51.50
2022-08-10T14:36:19.626Z,52.20
2022-08-10T14:38:28.516Z,51.30
2022-08-10T14:41:01.806Z,50.70
2022-08-10T14:43:35.562Z,52.40
2022-08-10T14:46:06.922Z,52.20
2022-08-10T14:48:40.274Z,52.30
2022-08-10T14:51:10.206Z,51.00
2022-08-10T14:53:42.416Z,52.10
2022-08-10T14:56:14.364Z,50.50
2022-08-10T14:58:59.245Z,52.40
2022-08-10T15:02:38.257Z,52.10
2022-08-10T15:04:28.360Z,51.50
2022-08-10T15:07:01.150Z,51.30
2022-08-10T15:10:01.497Z,51.30
2022-08-10T15:12:27.195Z,50.20
2022-08-10T15:15:00.679Z,51.10
2022-08-10T15:17:34.989Z,51.60
2022-08-10T15:20:14.340Z,51.50
2022-08-10T15:22:50.124Z,50.50
2022-08-10T15:25:25.443Z,50.80
2022-08-10T15:28:05.027Z,52.50
2022-08-10T15:30:40.928Z,51.40
2022-08-10T15:34:02.696Z,51.30
2022-08-10T15:37:02.413Z,51.20
2022-08-10T15:40:21.422Z,50.80
2022-08-10T15:42:35.199Z,51.30
2022-08-10T15:45:06.011Z,51.00
2022-08-10T15:47:44.902Z,50.90
2022-08-10T15:50:19.799Z,51.10
2022-08-10T15:53:01.801Z,50.90
2022-08-10T15:55:44.325Z,50.90
2022-08-10T15:58:20.630Z,50.40
2022-08-10T16:02:13.027Z,50.40
2022-08-10T16:04:08.584Z,50.50
2022-08-10T16:06:42.733Z,50.50
2022-08-10T16:10:22.251Z,51.20
2022-08-10T16:12:06.882Z,51.20
2022-08-10T16:14:38.166Z,51.20
2022-08-10T16:17:11.783Z,51.40
2022-08-10T16:19:48.723Z,51.70
2022-08-10T16:22:34.163Z,51.80
2022-08-10T16:25:13.834Z,51.10
2022-08-10T16:27:44.043Z,51.20
2022-08-10T16:30:13.175Z,51.50
2022-08-10T16:32:44.947Z,51.60
2022-08-10T16:35:21.095Z,51.50
2022-08-10T16:37:58.911Z,51.20
2022-08-10T16:40:29.936Z,51.70
2022-08-10T16:43:00.985Z,50.30
2022-08-10T16:45:35.719Z,51.20
2022-08-10T16:48:06.321Z,51.40
2022-08-10T16:50:41.467Z,51.40
2022-08-10T16:53:13.874Z,51.70
2022-08-10T16:55:50.567Z,51.20
2022-08-10T16:58:25.280Z,51.10
2022-08-10T17:00:54.822Z,51.40
2022-08-10T17:04:05.463Z,51.30
2022-08-10T17:06:23.524Z,51.10
2022-08-10T17:08:55.097Z,51.20
2022-08-10T17:11:28.306Z,51.20
2022-08-10T17:13:57.350Z,51.60
2022-08-10T17:16:27.186Z,51.50
2022-08-10T17:18:59.351Z,52.00
2022-08-10T17:21:32.426Z,51.80
2022-08-10T17:24:03.817Z,51.90
2022-08-10T17:26:35.697Z,52.30
2022-08-10T17:29:50.520Z,51.60
2022-08-10T17:32:01.744Z,51.40
2022-08-10T17:34:34.825Z,52.40
2022-08-10T17:37:06.484Z,52.50
2022-08-10T17:39:41.222Z,52.00
2022-08-10T17:42:10.166Z,51.80
2022-08-10T17:44:40.830Z,52.40
2022-08-10T17:47:11.714Z,52.30
2022-08-10T17:49:42.274Z,52.50
2022-08-10T17:52:12.470Z,53.20
2022-08-10T17:54:45.207Z,52.90
2022-08-10T17:57:18.434Z,52.80
2022-08-10T17:59:47.916Z,52.30
2022-08-10T18:02:19.740Z,52.50
2022-08-10T18:04:52.182Z,52.50
2022-08-10T18:07:23.874Z,52.60
2022-08-10T18:09:54.378Z,53.30
2022-08-10T18:12:30.915Z,52.70
2022-08-10T18:15:12.001Z,52.80
2022-08-10T18:17:45.666Z,52.80
2022-08-10T18:20:20.355Z,53.60
2022-08-10T18:22:58.323Z,53.60
2022-08-10T18:25:32.036Z,53.90
2022-08-10T18:28:04.828Z,53.30
2022-08-10T18:30:37.002Z,53.40
2022-08-10T18:33:11.849Z,54.10
2022-08-10T18:35:42.743Z,54.50
2022-08-10T18:38:13.097Z,54.80
2022-08-10T18:40:45.146Z,55.00
2022-08-10T18:44:07.648Z,55.30
2022-08-10T18:46:12.706Z,55.60
2022-08-10T18:48:46.339Z,55.30
2022-08-10T18:51:20.118Z,56.30
2022-08-10T18:53:54.880Z,55.60
2022-08-10T18:56:41.518Z,55.60
2022-08-10T18:59:23.928Z,57.70
2022-08-10T19:02:08.270Z,58.60
2022-08-10T19:04:51.209Z,59.00
2022-08-10T19:07:41.411Z,60.70
2022-08-10T19:10:17.764Z,60.30
2022-08-10T19:12:53.093Z,61.60
2022-08-10T19:15:28.878Z,60.20
2022-08-10T19:18:08.036Z,58.00
2022-08-10T19:20:44.592Z,58.60
2022-08-10T19:23:47.789Z,58.00
2022-08-10T19:26:43.723Z,60.00
2022-08-10T19:30:11.054Z,60.20
2022-08-10T19:32:38.633Z,59.70
2022-08-10T19:35:17.089Z,60.00
2022-08-10T19:38:00.386Z,60.50
2022-08-10T19:40:44.722Z,59.30
2022-08-10T19:43:30.810Z,60.80
2022-08-10T19:46:18.786Z,62.00
2022-08-10T19:48:54.559Z,63.30
2022-08-10T19:51:29.849Z,61.50
2022-08-10T19:54:05.992Z,61.20
2022-08-10T19:56:44.820Z,63.00
2022-08-10T20:00:16.384Z,62.10
2022-08-10T20:02:22.737Z,61.70
2022-08-10T20:04:58.445Z,62.00
2022-08-10T20:07:35.313Z,63.40
2022-08-10T20:10:12.579Z,63.50
2022-08-10T20:12:50.509Z,64.30
2022-08-10T20:15:28.771Z,64.90
2022-08-10T20:18:00.553Z,65.30
2022-08-10T20:20:35.825Z,65.60
2022-08-10T20:23:13.806Z,65.60
2022-08-10T20:25:47.390Z,65.40
2022-08-10T20:28:20.988Z,66.60
2022-08-10T20:30:53.968Z,65.70
2022-08-10T20:33:29.238Z,65.00
2022-08-10T20:36:04.333Z,64.80
2022-08-10T20:38:39.630Z,66.10
2022-08-10T20:41:25.187Z,66.70
2022-08-10T20:44:12.084Z,66.10
2022-08-10T20:46:51.474Z,66.90
2022-08-10T20:49:26.675Z,67.90
2022-08-10T20:52:00.346Z,68.30
2022-08-10T20:54:32.530Z,67.50
2022-08-10T20:57:55.282Z,67.40
2022-08-10T21:00:23.049Z,67.00
2022-08-10T21:03:20.859Z,69.00
2022-08-10T21:06:00.779Z,69.50
2022-08-10T21:08:43.728Z,69.50
2022-08-10T21:11:18.724Z,69.70
2022-08-10T21:14:08.813Z,70.30
2022-08-10T21:16:57.943Z,70.80
2022-08-10T21:19:55.921Z,71.10
2022-08-10T21:22:29.313Z,71.90
2022-08-10T21:25:03.104Z,71.90
2022-08-10T21:27:55.376Z,72.40
2022-08-10T21:30:30.622Z,71.80
2022-08-10T21:33:05.661Z,73.30
2022-08-10T21:35:38.344Z,74.50
2022-08-10T21:38:16.830Z,73.70
2022-08-10T21:41:28.120Z,73.70
2022-08-10T21:44:42.613Z,74.40
2022-08-10T21:47:42.456Z,72.80
2022-08-10T21:50:49.483Z,72.80
2022-08-10T21:53:43.833Z,72.50
2022-08-10T21:56:38.704Z,72.90
2022-08-10T21:59:29.324Z,75.10
2022-08-10T22:02:28.288Z,74.30
2022-08-10T22:05:20.146Z,73.50
2022-08-10T22:08:12.284Z,73.30
2022-08-10T22:11:02.884Z,74.40
2022-08-10T22:13:50.604Z,74.30
2022-08-10T22:16:44.990Z,73.70
2022-08-10T22:19:31.545Z,74.50
2022-08-10T22:22:28.241Z,75.60
2022-08-10T22:25:39.530Z,74.90
2022-08-10T22:28:25.266Z,74.80
2022-08-10T22:31:32.328Z,74.70
2022-08-10T22:34:33.336Z,76.10
2022-08-10T22:37:32.944Z,75.60
2022-08-10T22:40:23.778Z,76.80
2022-08-10T22:43:13.130Z,76.80
2022-08-10T22:46:06.391Z,76.80
2022-08-10T22:48:59.533Z,75.90
2022-08-10T22:51:37.258Z,76.20
2022-08-10T22:54:30.857Z,77.10
2022-08-10T22:57:19.594Z,76.70
2022-08-10T22:59:49.255Z,76.30
2022-08-10T23:02:27.731Z,76.60
2022-08-10T23:04:59.488Z,78.30
2022-08-10T23:07:31.211Z,78.00
2022-08-10T23:10:03.991Z,77.20
2022-08-10T23:12:41.650Z,78.70
2022-08-10T23:15:38.242Z,77.40
2022-08-10T23:18:28.903Z,77.90
2022-08-10T23:20:58.953Z,78.00
2022-08-10T23:23:28.761Z,78.70
2022-08-10T23:26:01.299Z,78.90
2022-08-10T23:28:38.343Z,78.80
2022-08-10T23:31:10.952Z,78.90
2022-08-10T23:33:40.237Z,79.10
2022-08-10T23:36:32.599Z,78.60
2022-08-10T23:39:26.862Z,79.30
2022-08-10T23:41:54.817Z,79.70
2022-08-10T23:44:25.670Z,79.80
2022-08-10T23:46:54.620Z,78.70
2022-08-10T23:49:24.377Z,79.30
2022-08-10T23:51:56.357Z,80.30
2022-08-10T23:54:25.900Z,80.30
2022-08-10T23:57:01.291Z,79.70
2022-08-10T23:59:32.920Z,80.20
